Terminal Aerodrome Forecast
Issued by NWS

Home | Current Version | Previous Version | Text Only | Print | Product List | Glossary On
Versions: 1 2 3 4 5 6 7 8 9 10 11 12 13 14
561
FTUS46 KSEW 271120
TAFHQM
TAF
KHQM 271120Z 2712/2812 27008KT P6SM VCSH SCT025 BKN035 BKN050
     FM271700 24012G20KT P6SM -SHRA SCT025 OVC035
     FM272000 26015G24KT P6SM VCSH BKN035
     FM280500 27010KT P6SM BKN030
     FM281000 28007KT P6SM OVC020=

USA.gov is the U.S. government's official web portal to all federal, state and local government web resources and services.